createdAt,value
2023-03-21T00:01:04.019Z,1.10
2023-03-21T00:03:35.683Z,1.10
2023-03-21T00:06:11.159Z,1.23
2023-03-21T00:08:42.815Z,1.10
2023-03-21T00:11:14.432Z,1.23
2023-03-21T00:13:46.220Z,1.00
2023-03-21T00:16:25.014Z,1.42
2023-03-21T00:19:06.512Z,1.98
2023-03-21T00:21:51.805Z,2.28
2023-03-21T00:24:27.162Z,1.30
2023-03-21T00:27:15.833Z,1.50
2023-03-21T00:29:51.734Z,1.30
2023-03-21T00:32:23.258Z,3.08
2023-03-21T00:35:16.471Z,2.38
2023-03-21T00:37:47.824Z,2.80
2023-03-21T00:40:28.045Z,2.13
2023-03-21T00:43:04.421Z,1.90
2023-03-21T00:45:37.406Z,1.77
2023-03-21T00:48:10.118Z,1.35
2023-03-21T00:50:47.781Z,1.80
2023-03-21T00:53:19.746Z,1.35
2023-03-21T00:55:51.414Z,1.40
2023-03-21T00:58:22.957Z,1.30
2023-03-21T01:00:54.785Z,1.30
2023-03-21T01:03:26.705Z,1.30
2023-03-21T01:06:07.557Z,1.25
2023-03-21T01:08:51.856Z,1.27
2023-03-21T01:11:28.512Z,1.20
2023-03-21T01:14:18.691Z,1.63
2023-03-21T01:19:44.231Z,1.33
2023-03-21T01:22:21.286Z,1.55
2023-03-21T01:24:58.556Z,1.70
2023-03-21T01:27:34.722Z,1.17
2023-03-21T01:30:17.380Z,1.40
2023-03-21T01:32:51.236Z,1.38
2023-03-21T01:35:22.876Z,1.25
2023-03-21T01:37:54.602Z,1.10
2023-03-21T01:40:27.058Z,1.75
2023-03-21T01:42:58.693Z,1.33
2023-03-21T01:46:08.150Z,1.10
2023-03-21T01:48:42.789Z,1.67
2023-03-21T01:51:14.401Z,1.23
2023-03-21T01:53:47.312Z,0.88
2023-03-21T01:56:28.063Z,1.15
2023-03-21T01:59:08.169Z,1.15
2023-03-21T02:01:42.313Z,1.30
2023-03-21T02:04:14.495Z,1.50
2023-03-21T02:06:54.595Z,2.05
2023-03-21T02:09:31.985Z,2.08
2023-03-21T02:12:04.196Z,1.63
2023-03-21T02:14:37.711Z,1.33
2023-03-21T02:17:15.420Z,1.42
2023-03-21T02:20:09.046Z,1.08
2023-03-21T02:22:51.270Z,1.30
2023-03-21T02:25:50.395Z,1.40
2023-03-21T02:28:27.516Z,1.10
2023-03-21T02:31:14.013Z,1.40
2023-03-21T02:34:16.725Z,1.15
2023-03-21T02:37:07.321Z,1.58
2023-03-21T02:40:11.697Z,1.40
2023-03-21T02:42:51.701Z,1.55
2023-03-21T02:45:49.777Z,1.45
2023-03-21T02:48:50.354Z,1.77
2023-03-21T02:51:25.944Z,1.60
2023-03-21T02:54:45.336Z,1.38
2023-03-21T02:57:07.628Z,1.95
2023-03-21T02:59:51.791Z,1.58
2023-03-21T03:02:27.786Z,1.50
2023-03-21T03:05:00.622Z,1.15
2023-03-21T03:07:42.692Z,1.35
2023-03-21T03:10:40.793Z,1.60
2023-03-21T03:13:32.324Z,1.50
2023-03-21T03:16:30.683Z,1.50
2023-03-21T03:19:07.033Z,1.50
2023-03-21T03:21:48.750Z,1.60
2023-03-21T03:24:26.033Z,1.30
2023-03-21T03:27:04.284Z,1.88
2023-03-21T03:29:40.017Z,1.52
2023-03-21T03:32:18.143Z,1.67
2023-03-21T03:34:56.358Z,1.40
2023-03-21T03:37:33.174Z,1.52
2023-03-21T03:40:26.146Z,1.40
2023-03-21T03:43:07.306Z,1.42
2023-03-21T03:45:47.983Z,1.38
2023-03-21T03:48:22.335Z,1.58
2023-03-21T03:51:21.120Z,1.50
2023-03-21T03:54:07.115Z,1.45
2023-03-21T03:56:39.627Z,1.60
2023-03-21T03:59:11.265Z,1.48
2023-03-21T04:01:42.818Z,1.27
2023-03-21T04:04:17.030Z,1.67
2023-03-21T04:06:51.712Z,1.30
2023-03-21T04:09:37.241Z,1.70
2023-03-21T04:12:14.468Z,1.35
2023-03-21T04:14:47.492Z,1.45
2023-03-21T04:17:19.274Z,1.90
2023-03-21T04:19:53.807Z,1.55
2023-03-21T04:22:29.246Z,1.45
2023-03-21T04:25:05.331Z,1.55
2023-03-21T04:27:37.255Z,1.58
2023-03-21T04:30:12.152Z,1.73
2023-03-21T04:32:43.698Z,1.80
2023-03-21T04:35:15.377Z,1.90
2023-03-21T04:37:47.012Z,2.08
2023-03-21T04:40:18.963Z,1.67
2023-03-21T04:45:22.418Z,2.08
2023-03-21T04:47:53.926Z,1.77
2023-03-21T04:50:25.587Z,1.57
2023-03-21T04:52:57.112Z,1.63
2023-03-21T04:55:31.734Z,2.03
2023-03-21T04:58:04.388Z,1.85
2023-03-21T05:00:39.157Z,1.38
2023-03-21T05:03:10.708Z,1.67
2023-03-21T05:05:42.280Z,1.50
2023-03-21T05:08:14.173Z,1.67
2023-03-21T05:10:45.798Z,1.67
2023-03-21T05:13:17.307Z,1.60
2023-03-21T05:15:50.429Z,1.50
2023-03-21T05:18:24.974Z,1.67
2023-03-21T05:20:57.346Z,1.55
2023-03-21T05:26:03.151Z,1.70
2023-03-21T05:28:36.798Z,1.85
2023-03-21T05:31:08.859Z,1.65
2023-03-21T05:33:40.461Z,1.67
2023-03-21T05:36:12.873Z,1.58
2023-03-21T05:41:19.365Z,1.88
2023-03-21T05:43:50.967Z,1.50
2023-03-21T05:46:22.592Z,1.85
2023-03-21T05:48:54.249Z,2.10
2023-03-21T05:51:25.833Z,1.60
2023-03-21T05:53:57.390Z,1.70
2023-03-21T05:56:28.908Z,2.42
2023-03-21T05:59:00.665Z,2.20
2023-03-21T06:01:32.172Z,2.50
2023-03-21T06:04:03.949Z,1.90
2023-03-21T06:06:35.501Z,2.20
2023-03-21T06:09:07.156Z,1.80
2023-03-21T06:11:42.185Z,1.50
2023-03-21T06:14:14.010Z,1.73
2023-03-21T06:16:45.790Z,1.77
2023-03-21T06:19:17.473Z,1.88
2023-03-21T06:21:49.512Z,1.90
2023-03-21T06:24:21.733Z,1.75
2023-03-21T06:26:53.282Z,1.98
2023-03-21T06:29:24.884Z,1.63
2023-03-21T06:31:56.425Z,1.75
2023-03-21T06:34:28.225Z,1.65
2023-03-21T06:36:59.744Z,2.05
2023-03-21T06:39:33.072Z,1.60
2023-03-21T06:42:04.598Z,1.75
2023-03-21T06:44:36.295Z,2.15
2023-03-21T06:47:07.959Z,1.58
2023-03-21T06:49:41.019Z,2.03
2023-03-21T06:52:12.800Z,1.85
2023-03-21T06:54:44.368Z,1.65
2023-03-21T06:57:16.162Z,1.70
2023-03-21T06:59:47.734Z,1.70
2023-03-21T07:02:19.312Z,2.05
2023-03-21T07:04:51.011Z,1.75
2023-03-21T07:07:26.334Z,1.52
2023-03-21T07:09:57.905Z,1.65
2023-03-21T07:12:29.414Z,1.80
2023-03-21T07:15:02.101Z,1.80
2023-03-21T07:17:34.176Z,1.40
2023-03-21T07:20:08.305Z,2.15
2023-03-21T07:22:40.876Z,2.03
2023-03-21T07:25:12.596Z,2.00
2023-03-21T07:27:44.141Z,2.10
2023-03-21T07:30:15.969Z,2.08
2023-03-21T07:32:47.647Z,2.47
2023-03-21T07:35:19.749Z,2.10
2023-03-21T07:37:51.578Z,1.77
2023-03-21T07:40:23.230Z,2.00
2023-03-21T07:42:54.769Z,1.92
2023-03-21T07:45:27.384Z,2.22
2023-03-21T07:47:58.988Z,2.00
2023-03-21T07:50:30.934Z,2.15
2023-03-21T07:53:02.473Z,2.05
2023-03-21T07:55:35.084Z,2.10
2023-03-21T07:58:06.679Z,2.17
2023-03-21T08:00:38.326Z,2.58
2023-03-21T08:03:10.167Z,2.25
2023-03-21T08:05:42.233Z,2.50
2023-03-21T08:08:14.093Z,2.42
2023-03-21T08:10:45.936Z,2.30
2023-03-21T08:13:17.550Z,3.13
2023-03-21T08:15:49.358Z,2.50
2023-03-21T08:18:21.118Z,1.90
2023-03-21T08:20:57.115Z,2.10
2023-03-21T08:23:30.522Z,2.33
2023-03-21T08:26:02.659Z,2.08
2023-03-21T08:28:34.246Z,2.25
2023-03-21T08:31:10.633Z,2.40
2023-03-21T08:33:42.248Z,2.20
2023-03-21T08:36:13.831Z,2.22
2023-03-21T08:38:48.445Z,2.28
2023-03-21T08:41:22.144Z,2.47
2023-03-21T08:43:53.858Z,2.80
2023-03-21T08:46:25.768Z,2.53
2023-03-21T08:48:57.356Z,2.70
2023-03-21T08:51:28.988Z,2.63
2023-03-21T08:54:00.620Z,2.00
2023-03-21T08:56:32.521Z,2.58
2023-03-21T08:59:04.552Z,2.45
2023-03-21T09:01:37.192Z,2.50
2023-03-21T09:04:11.008Z,1.60
2023-03-21T09:06:45.776Z,1.80
2023-03-21T09:09:17.972Z,1.67
2023-03-21T09:11:51.512Z,2.20
2023-03-21T09:14:28.774Z,2.35
2023-03-21T09:17:01.358Z,2.20
2023-03-21T09:19:33.144Z,2.75
2023-03-21T09:22:04.723Z,2.70
2023-03-21T09:24:36.399Z,2.42
2023-03-21T09:27:08.165Z,2.95
2023-03-21T09:29:43.399Z,2.53
2023-03-21T09:32:15.352Z,2.85
2023-03-21T09:34:48.542Z,2.90
2023-03-21T09:37:21.208Z,2.45
2023-03-21T09:39:52.761Z,2.58
2023-03-21T09:42:39.469Z,1.92
2023-03-21T09:45:11.434Z,1.50
2023-03-21T09:47:52.628Z,2.20
2023-03-21T09:50:31.616Z,2.40
2023-03-21T09:53:27.171Z,1.67
2023-03-21T09:56:01.411Z,2.30
2023-03-21T09:58:40.105Z,2.08
2023-03-21T10:01:22.307Z,1.80
2023-03-21T10:03:56.643Z,1.90
2023-03-21T10:06:30.618Z,1.95
2023-03-21T10:09:06.677Z,2.10
2023-03-21T10:11:44.684Z,1.83
2023-03-21T10:14:23.636Z,1.55
2023-03-21T10:17:04.290Z,1.88
2023-03-21T10:19:36.304Z,1.38
2023-03-21T10:22:09.252Z,1.85
2023-03-21T10:24:41.169Z,1.67
2023-03-21T10:27:13.815Z,1.60
2023-03-21T10:29:46.454Z,1.60
2023-03-21T10:32:18.415Z,1.30
2023-03-21T10:37:35.418Z,1.58
2023-03-21T10:40:08.850Z,1.50
2023-03-21T10:42:40.414Z,1.38
2023-03-21T10:45:18.744Z,1.40
2023-03-21T10:47:51.611Z,1.40
2023-03-21T10:50:29.726Z,1.10
2023-03-21T10:53:01.681Z,1.02
2023-03-21T10:55:34.868Z,1.30
2023-03-21T10:58:10.909Z,1.20
2023-03-21T11:00:43.446Z,1.17
2023-03-21T11:03:31.431Z,1.45
2023-03-21T11:06:11.377Z,1.40
2023-03-21T11:08:53.878Z,1.27
2023-03-21T11:11:27.695Z,1.60
2023-03-21T11:14:06.735Z,1.45
2023-03-21T11:16:43.838Z,1.10
2023-03-21T11:19:26.653Z,1.65
2023-03-21T11:21:59.821Z,1.30
2023-03-21T11:24:33.877Z,1.20
2023-03-21T11:27:07.682Z,1.20
2023-03-21T11:29:44.233Z,1.17
2023-03-21T11:32:35.048Z,2.83
2023-03-21T11:35:19.771Z,1.60
2023-03-21T11:37:53.561Z,1.60
2023-03-21T11:40:26.394Z,1.20
2023-03-21T11:42:59.173Z,1.42
2023-03-21T11:45:33.101Z,1.10
2023-03-21T11:48:14.816Z,1.60
2023-03-21T11:50:50.185Z,1.70
2023-03-21T11:53:27.221Z,1.55
2023-03-21T11:56:13.965Z,1.33
2023-03-21T11:59:16.190Z,1.50
2023-03-21T12:02:21.526Z,1.27
2023-03-21T12:05:04.482Z,1.10
2023-03-21T12:07:39.037Z,1.40
2023-03-21T12:10:27.429Z,1.63
2023-03-21T12:13:20.714Z,1.70
2023-03-21T12:16:04.158Z,1.52
2023-03-21T12:18:54.023Z,1.38
2023-03-21T12:21:25.817Z,1.60
2023-03-21T12:24:09.015Z,1.60
2023-03-21T12:26:51.645Z,1.58
2023-03-21T12:29:41.890Z,1.88
2023-03-21T12:32:35.699Z,1.58
2023-03-21T12:35:46.013Z,2.13
2023-03-21T12:38:39.278Z,1.98
2023-03-21T12:41:31.622Z,1.70
2023-03-21T12:44:08.697Z,1.60
2023-03-21T12:46:49.013Z,1.60
2023-03-21T12:49:43.638Z,2.45
2023-03-21T12:52:30.671Z,2.00
2023-03-21T12:55:18.704Z,1.50
2023-03-21T12:58:22.961Z,1.65
2023-03-21T13:00:58.580Z,1.58
2023-03-21T13:03:52.257Z,1.80
2023-03-21T13:06:26.554Z,1.70
2023-03-21T13:09:11.229Z,2.08
2023-03-21T13:11:44.291Z,1.63
2023-03-21T13:14:23.833Z,1.95
2023-03-21T13:17:04.546Z,2.20
2023-03-21T13:19:46.736Z,2.03
2023-03-21T13:25:06.884Z,1.73
2023-03-21T13:27:41.467Z,1.65
2023-03-21T13:30:30.655Z,1.92
2023-03-21T13:33:14.142Z,1.75
2023-03-21T13:35:46.067Z,1.48
2023-03-21T13:38:21.938Z,1.38
2023-03-21T13:41:08.907Z,0.98
2023-03-21T13:43:40.406Z,1.40
2023-03-21T13:46:52.300Z,1.83
2023-03-21T13:49:38.254Z,1.65
2023-03-21T13:52:09.788Z,1.50
2023-03-21T13:54:51.092Z,2.03
2023-03-21T13:57:38.784Z,1.67
2023-03-21T14:00:21.685Z,1.30
2023-03-21T14:03:13.975Z,1.40
2023-03-21T14:05:50.155Z,1.05
2023-03-21T14:08:34.767Z,1.48
2023-03-21T14:11:15.012Z,1.52
2023-03-21T14:13:51.187Z,1.50
2023-03-21T14:16:28.376Z,1.50
2023-03-21T14:19:06.176Z,1.95
2023-03-21T14:21:38.257Z,1.35
2023-03-21T14:24:14.202Z,1.60
2023-03-21T14:26:51.789Z,1.45
2023-03-21T14:29:31.837Z,1.50
2023-03-21T14:32:05.745Z,1.42
2023-03-21T14:34:37.681Z,1.77
2023-03-21T14:37:11.249Z,1.70
2023-03-21T14:39:42.826Z,1.95
2023-03-21T14:42:15.647Z,1.63
2023-03-21T14:44:55.412Z,1.90
2023-03-21T14:47:29.829Z,1.63
2023-03-21T14:50:01.500Z,1.88
2023-03-21T14:52:34.562Z,1.67
2023-03-21T14:55:16.425Z,1.90
2023-03-21T14:57:48.646Z,1.83
2023-03-21T15:00:27.694Z,2.38
2023-03-21T15:03:03.195Z,1.95
2023-03-21T15:05:37.485Z,2.10
2023-03-21T15:08:14.669Z,1.85
2023-03-21T15:11:12.475Z,2.10
2023-03-21T15:13:51.272Z,1.58
2023-03-21T15:16:23.528Z,2.00
2023-03-21T15:18:55.919Z,2.00
2023-03-21T15:21:31.580Z,1.70
2023-03-21T15:24:13.548Z,1.88
2023-03-21T15:26:47.666Z,2.92
2023-03-21T15:29:19.352Z,2.13
2023-03-21T15:31:51.027Z,2.03
2023-03-21T15:34:27.869Z,2.30
2023-03-21T15:37:06.899Z,2.40
2023-03-21T15:39:38.464Z,1.85
2023-03-21T15:42:29.851Z,2.55
2023-03-21T15:45:31.308Z,1.92
2023-03-21T15:48:09.080Z,1.98
2023-03-21T15:50:47.375Z,2.00
2023-03-21T15:53:20.238Z,1.98
2023-03-21T15:56:01.821Z,2.00
2023-03-21T15:58:41.896Z,1.92
2023-03-21T16:01:18.081Z,1.85
2023-03-21T16:04:02.804Z,1.90
2023-03-21T16:06:37.189Z,2.50
2023-03-21T16:09:08.723Z,2.20
2023-03-21T16:11:48.326Z,1.92
2023-03-21T16:14:21.028Z,2.53
2023-03-21T16:16:52.909Z,1.80
2023-03-21T16:19:24.911Z,2.40
2023-03-21T16:21:56.517Z,2.95
2023-03-21T16:24:28.022Z,2.72
2023-03-21T16:27:00.544Z,2.92
2023-03-21T16:29:32.045Z,2.88
2023-03-21T16:32:06.290Z,2.50
2023-03-21T16:34:37.889Z,2.83
2023-03-21T16:37:15.852Z,2.67
2023-03-21T16:39:47.751Z,2.72
2023-03-21T16:42:19.269Z,3.17
2023-03-21T16:44:50.918Z,4.18
2023-03-21T16:47:25.641Z,3.05
2023-03-21T16:49:57.273Z,2.55
2023-03-21T16:52:28.773Z,2.88
2023-03-21T16:55:00.324Z,2.50
2023-03-21T16:57:31.890Z,3.28
2023-03-21T17:00:07.411Z,8.43
2023-03-21T17:02:38.963Z,4.68
2023-03-21T17:05:11.647Z,3.38
2023-03-21T17:07:44.040Z,2.83
2023-03-21T17:10:29.356Z,3.00
2023-03-21T17:13:00.970Z,2.75
2023-03-21T17:15:32.554Z,3.15
2023-03-21T17:18:04.533Z,2.67
2023-03-21T17:20:38.266Z,3.17
2023-03-21T17:23:10.914Z,3.85
2023-03-21T17:25:42.488Z,4.13
2023-03-21T17:28:14.152Z,3.53
2023-03-21T17:33:41.819Z,3.25
2023-03-21T17:36:24.498Z,2.75
2023-03-21T17:38:56.479Z,3.33
2023-03-21T17:41:28.072Z,2.90
2023-03-21T17:43:59.604Z,2.83
2023-03-21T17:46:38.667Z,2.80
2023-03-21T17:49:13.342Z,2.63
2023-03-21T17:51:46.900Z,2.47
2023-03-21T17:54:18.577Z,2.33
2023-03-21T17:56:50.519Z,2.58
2023-03-21T17:59:22.540Z,2.63
2023-03-21T18:01:54.099Z,2.15
2023-03-21T18:04:27.070Z,2.60
2023-03-21T18:07:01.120Z,2.47
2023-03-21T18:09:33.452Z,3.28
2023-03-21T18:12:05.226Z,2.15
2023-03-21T18:14:40.548Z,2.30
2023-03-21T18:17:12.410Z,2.58
2023-03-21T18:19:45.125Z,2.30
2023-03-21T18:22:18.173Z,2.33
2023-03-21T18:24:49.932Z,3.17
2023-03-21T18:27:21.596Z,2.50
2023-03-21T18:30:25.804Z,2.58
2023-03-21T18:32:45.837Z,3.45
2023-03-21T18:35:22.441Z,2.97
2023-03-21T18:37:55.196Z,2.58
2023-03-21T18:40:27.569Z,2.53
2023-03-21T18:43:49.888Z,2.63
2023-03-21T18:45:53.028Z,2.47
2023-03-21T18:48:24.779Z,2.95
2023-03-21T18:50:56.778Z,2.70
2023-03-21T18:53:28.801Z,3.00
2023-03-21T18:56:00.779Z,2.47
2023-03-21T18:58:32.830Z,2.33
2023-03-21T19:01:05.184Z,2.60
2023-03-21T19:03:37.754Z,2.78
2023-03-21T19:06:11.694Z,2.55
2023-03-21T19:11:19.171Z,3.22
2023-03-21T19:13:53.099Z,3.22
2023-03-21T19:16:31.525Z,2.85
2023-03-21T19:19:09.423Z,3.35
2023-03-21T19:21:41.326Z,3.58
2023-03-21T19:24:30.428Z,3.83
2023-03-21T19:27:02.012Z,3.80
2023-03-21T19:29:34.219Z,4.65
2023-03-21T19:34:38.721Z,3.55
2023-03-21T19:37:10.921Z,3.33
2023-03-21T19:39:42.669Z,3.63
2023-03-21T19:42:17.213Z,3.17
2023-03-21T19:44:49.294Z,2.95
2023-03-21T19:47:20.946Z,3.47
2023-03-21T19:52:46.144Z,3.20
2023-03-21T19:55:18.113Z,3.90
2023-03-21T19:57:49.897Z,3.80
2023-03-21T20:00:21.669Z,4.68
2023-03-21T20:02:53.704Z,4.32
2023-03-21T20:05:25.800Z,3.67
2023-03-21T20:07:57.472Z,3.95
2023-03-21T20:10:29.936Z,3.33
2023-03-21T20:13:01.488Z,3.40
2023-03-21T20:15:44.766Z,3.28
2023-03-21T20:18:21.445Z,3.00
2023-03-21T20:20:53.407Z,4.03
2023-03-21T20:23:25.122Z,2.83
2023-03-21T20:25:56.789Z,2.95
2023-03-21T20:28:29.115Z,3.75
2023-03-21T20:31:02.015Z,3.95
2023-03-21T20:33:33.665Z,6.47
2023-03-21T20:36:37.682Z,4.55
2023-03-21T20:38:59.218Z,5.25
2023-03-21T20:41:30.982Z,5.32
2023-03-21T20:46:54.874Z,3.25
2023-03-21T20:49:26.804Z,2.65
2023-03-21T20:52:51.828Z,3.40
2023-03-21T20:54:51.906Z,2.55
2023-03-21T20:57:27.105Z,5.90
2023-03-21T20:59:58.873Z,6.68
2023-03-21T21:02:30.592Z,25.15
2023-03-21T21:05:24.856Z,34.10
2023-03-21T21:07:54.841Z,18.95
2023-03-21T21:10:28.816Z,6.75
2023-03-21T21:13:00.438Z,5.80
2023-03-21T21:15:33.513Z,3.63
2023-03-21T21:18:07.369Z,3.25
2023-03-21T21:20:40.134Z,2.88
2023-03-21T21:25:45.341Z,2.90
2023-03-21T21:28:18.830Z,2.58
2023-03-21T21:30:55.800Z,2.80
2023-03-21T21:33:30.373Z,2.40
2023-03-21T21:36:01.864Z,2.97
2023-03-21T21:38:36.013Z,2.38
2023-03-21T21:41:09.073Z,2.90
2023-03-21T21:43:40.902Z,2.58
2023-03-21T21:46:13.294Z,2.60
2023-03-21T21:48:44.888Z,2.13
2023-03-21T21:51:25.960Z,2.80
2023-03-21T21:53:58.537Z,2.75
2023-03-21T21:56:32.653Z,3.45
2023-03-21T21:59:04.243Z,2.65
2023-03-21T22:01:38.553Z,2.63
2023-03-21T22:04:11.499Z,2.67
2023-03-21T22:06:43.267Z,2.75
2023-03-21T22:09:15.912Z,2.38
2023-03-21T22:11:47.695Z,3.08
2023-03-21T22:14:19.420Z,2.40
2023-03-21T22:16:50.945Z,2.60
2023-03-21T22:19:22.490Z,2.38
2023-03-21T22:21:58.038Z,2.42
2023-03-21T22:24:29.605Z,2.75
2023-03-21T22:27:01.259Z,3.60
2023-03-21T22:29:32.815Z,2.65
2023-03-21T22:32:04.488Z,3.03
2023-03-21T22:34:36.215Z,2.13
2023-03-21T22:37:07.728Z,2.95
2023-03-21T22:39:39.494Z,2.35
2023-03-21T22:42:11.074Z,2.85
2023-03-21T22:44:42.617Z,3.33
2023-03-21T22:47:14.141Z,2.85
2023-03-21T22:49:46.962Z,3.35
2023-03-21T22:52:18.904Z,4.75
2023-03-21T22:54:50.618Z,5.32
2023-03-21T22:57:22.225Z,4.50
2023-03-21T22:59:53.825Z,4.57
2023-03-21T23:02:25.601Z,3.65
2023-03-21T23:04:57.141Z,3.60
2023-03-21T23:07:28.610Z,3.38
2023-03-21T23:10:00.256Z,3.22
2023-03-21T23:12:32.241Z,3.08
2023-03-21T23:15:04.431Z,2.80
2023-03-21T23:17:36.205Z,2.95
2023-03-21T23:20:08.681Z,2.85
2023-03-21T23:22:40.593Z,2.47
2023-03-21T23:25:12.716Z,2.90
2023-03-21T23:27:44.919Z,2.70
2023-03-21T23:30:16.695Z,3.13
2023-03-21T23:32:48.266Z,2.33
2023-03-21T23:35:19.872Z,3.30
2023-03-21T23:37:52.507Z,3.03
2023-03-21T23:40:24.410Z,3.20
2023-03-21T23:42:56.077Z,2.92
2023-03-21T23:45:27.629Z,3.20
2023-03-21T23:47:59.188Z,2.75
2023-03-21T23:50:30.811Z,3.58
2023-03-21T23:53:02.490Z,2.70
2023-03-21T23:55:37.800Z,2.72
2023-03-21T23:58:09.344Z,3.25
